createdAt,value
2018-05-24T00:01:02.325Z,13.83
2018-05-24T00:03:29.937Z,19.15
2018-05-24T00:05:57.493Z,16.23
2018-05-24T00:08:25.057Z,16.40
2018-05-24T00:10:52.672Z,15.83
2018-05-24T00:13:22.322Z,15.70
2018-05-24T00:15:49.879Z,16.70
2018-05-24T00:18:17.484Z,16.50
2018-05-24T00:20:45.035Z,16.27
2018-05-24T00:23:12.597Z,16.53
2018-05-24T00:25:40.208Z,15.83
2018-05-24T00:28:08.532Z,16.60
2018-05-24T00:30:36.110Z,18.57
2018-05-24T00:33:03.686Z,19.93
2018-05-24T00:35:31.237Z,20.30
2018-05-24T00:37:58.818Z,19.70
2018-05-24T00:40:26.413Z,19.70
2018-05-24T00:42:53.972Z,20.40
2018-05-24T00:45:21.535Z,20.47
2018-05-24T00:47:49.157Z,21.63
2018-05-24T00:50:16.711Z,18.77
2018-05-24T00:52:44.271Z,24.65
2018-05-24T00:55:42.349Z,19.73
2018-05-24T00:58:09.908Z,18.50
2018-05-24T01:00:37.460Z,24.20
2018-05-24T01:03:05.068Z,25.98
2018-05-24T01:05:33.396Z,19.40
2018-05-24T01:08:00.955Z,18.63
2018-05-24T01:10:28.571Z,16.97
2018-05-24T01:12:56.898Z,16.67
2018-05-24T01:15:24.459Z,16.37
2018-05-24T01:17:52.047Z,18.97
2018-05-24T01:20:19.599Z,17.87
2018-05-24T01:22:47.156Z,17.10
2018-05-24T01:25:14.768Z,21.45
2018-05-24T01:27:42.323Z,17.60
2018-05-24T01:30:09.885Z,18.00
2018-05-24T01:32:37.475Z,18.33
2018-05-24T01:35:05.035Z,18.90
2018-05-24T01:37:53.178Z,19.40
2018-05-24T01:40:20.728Z,17.37
2018-05-24T01:42:48.278Z,18.33
2018-05-24T01:45:15.888Z,18.67
2018-05-24T01:47:43.445Z,20.53
2018-05-24T01:50:11.012Z,22.37
2018-05-24T01:52:38.605Z,21.70
2018-05-24T01:55:06.928Z,24.30
2018-05-24T01:57:34.489Z,23.80
2018-05-24T02:00:02.092Z,23.80
2018-05-24T02:02:29.644Z,23.67
2018-05-24T02:04:57.252Z,26.20
2018-05-24T02:07:25.876Z,31.85
2018-05-24T02:09:53.437Z,20.73
2018-05-24T02:12:20.988Z,19.27
2018-05-24T02:14:48.578Z,26.60
2018-05-24T02:17:16.136Z,21.53
2018-05-24T02:19:43.696Z,18.80
2018-05-24T02:22:11.297Z,24.83
2018-05-24T02:24:38.865Z,28.90
2018-05-24T02:27:06.421Z,22.17
2018-05-24T02:29:34.052Z,19.37
2018-05-24T02:32:01.727Z,22.13
2018-05-24T02:34:29.174Z,21.63
2018-05-24T02:36:56.769Z,20.47
2018-05-24T02:39:24.326Z,22.83
2018-05-24T02:41:52.645Z,22.03
2018-05-24T02:44:20.253Z,22.53
2018-05-24T02:46:48.588Z,24.40
2018-05-24T02:49:16.142Z,26.13
2018-05-24T02:51:44.929Z,25.43
2018-05-24T02:54:12.491Z,23.33
2018-05-24T02:56:40.038Z,24.80
2018-05-24T02:59:07.633Z,23.87
2018-05-24T03:01:35.259Z,25.83
2018-05-24T03:04:02.764Z,28.57
2018-05-24T03:06:30.352Z,24.70
2018-05-24T03:08:58.679Z,36.25
2018-05-24T03:11:26.242Z,26.73
2018-05-24T03:13:53.860Z,25.63
2018-05-24T03:16:22.184Z,27.33
2018-05-24T03:18:49.762Z,28.17
2018-05-24T03:21:17.355Z,29.00
2018-05-24T03:23:44.917Z,27.77
2018-05-24T03:26:12.484Z,27.90
2018-05-24T03:28:40.068Z,27.13
2018-05-24T03:31:07.628Z,27.70
2018-05-24T03:33:35.186Z,26.97
2018-05-24T03:36:03.214Z,27.37
2018-05-24T03:38:30.777Z,27.40
2018-05-24T03:40:58.342Z,27.37
2018-05-24T03:43:25.954Z,31.73
2018-05-24T03:45:53.514Z,28.50
2018-05-24T03:48:21.084Z,33.57
2018-05-24T03:50:48.672Z,27.47
2018-05-24T03:53:16.233Z,27.13
2018-05-24T03:55:43.799Z,24.40
2018-05-24T03:58:11.418Z,24.83
2018-05-24T04:01:15.903Z,23.20
2018-05-24T04:03:49.359Z,34.87
2018-05-24T04:06:16.925Z,38.13
2018-05-24T04:08:44.491Z,26.67
2018-05-24T04:11:12.106Z,26.60
2018-05-24T04:13:40.425Z,30.60
2018-05-24T04:16:07.991Z,27.80
2018-05-24T04:18:35.605Z,26.20
2018-05-24T04:21:03.977Z,28.80
2018-05-24T04:23:32.306Z,27.53
2018-05-24T04:25:59.894Z,27.43
2018-05-24T04:28:27.467Z,26.60
2018-05-24T04:30:55.024Z,32.63
2018-05-24T04:33:22.612Z,25.53
2018-05-24T04:35:50.188Z,27.27
2018-05-24T04:38:17.739Z,23.03
2018-05-24T04:40:45.771Z,20.97
2018-05-24T04:43:13.410Z,20.00
2018-05-24T04:45:44.155Z,19.33
2018-05-24T04:48:11.727Z,18.00
2018-05-24T04:50:39.330Z,19.23
2018-05-24T04:53:06.973Z,18.63
2018-05-24T04:55:34.598Z,19.93
2018-05-24T04:58:02.175Z,19.33
2018-05-24T05:00:29.725Z,19.20
2018-05-24T05:02:57.401Z,19.27
2018-05-24T05:05:26.327Z,19.47
2018-05-24T05:07:53.884Z,19.27
2018-05-24T05:10:22.249Z,23.98
2018-05-24T05:12:49.814Z,19.50
2018-05-24T05:15:17.377Z,18.37
2018-05-24T05:17:44.974Z,18.33
2018-05-24T05:20:12.529Z,18.27
2018-05-24T05:22:40.115Z,19.17
2018-05-24T05:25:08.535Z,20.70
2018-05-24T05:27:36.035Z,20.20
2018-05-24T05:30:03.674Z,19.93
2018-05-24T05:32:31.245Z,20.70
2018-05-24T05:34:58.806Z,18.83
2018-05-24T05:37:26.370Z,20.23
2018-05-24T05:39:53.972Z,18.97
2018-05-24T05:42:21.529Z,17.93
2018-05-24T05:44:49.145Z,16.73
2018-05-24T05:47:16.716Z,17.17
2018-05-24T05:49:44.276Z,17.47
2018-05-24T05:52:11.845Z,16.80
2018-05-24T05:54:39.452Z,17.37
2018-05-24T05:57:07.015Z,15.93
2018-05-24T05:59:34.592Z,17.17
2018-05-24T06:02:02.225Z,20.45
2018-05-24T06:04:29.750Z,19.03
2018-05-24T06:06:57.313Z,16.80
2018-05-24T06:09:25.414Z,17.77
2018-05-24T06:11:52.972Z,15.13
2018-05-24T06:14:20.551Z,16.80
2018-05-24T06:16:48.159Z,16.90
2018-05-24T06:19:16.482Z,17.33
2018-05-24T06:21:44.088Z,17.47
2018-05-24T06:24:11.653Z,17.80
2018-05-24T06:26:39.977Z,18.33
2018-05-24T06:29:07.537Z,18.03
2018-05-24T06:31:36.741Z,17.00
2018-05-24T06:34:04.300Z,15.87
2018-05-24T06:36:31.859Z,16.53
2018-05-24T06:38:59.461Z,16.77
2018-05-24T06:41:27.017Z,17.77
2018-05-24T06:43:54.576Z,18.97
2018-05-24T06:46:22.230Z,21.75
2018-05-24T06:48:49.765Z,23.38
2018-05-24T06:51:17.319Z,17.80
2018-05-24T06:53:44.940Z,18.87
2018-05-24T06:56:12.479Z,16.37
2018-05-24T06:58:40.025Z,15.27
2018-05-24T07:01:07.667Z,17.65
2018-05-24T07:03:35.238Z,15.00
2018-05-24T07:06:02.841Z,15.33
2018-05-24T07:08:30.442Z,15.60
2018-05-24T07:10:58.015Z,14.87
2018-05-24T07:13:25.568Z,15.50
2018-05-24T07:15:53.667Z,16.40
2018-05-24T07:18:21.204Z,17.20
2018-05-24T07:20:48.762Z,16.70
2018-05-24T07:23:16.396Z,16.60
2018-05-24T07:25:44.725Z,16.30
2018-05-24T07:28:12.302Z,16.00
2018-05-24T07:30:39.895Z,17.30
2018-05-24T07:33:08.221Z,16.43
2018-05-24T07:35:35.784Z,16.70
2018-05-24T07:38:03.387Z,17.00
2018-05-24T07:40:30.943Z,17.10
2018-05-24T07:42:58.498Z,17.77
2018-05-24T07:45:26.152Z,17.50
2018-05-24T07:47:53.695Z,17.50
2018-05-24T07:50:21.252Z,19.23
2018-05-24T07:52:48.854Z,17.20
2018-05-24T07:55:16.408Z,16.87
2018-05-24T07:57:43.968Z,15.50
2018-05-24T08:00:11.581Z,15.87
2018-05-24T08:02:39.141Z,17.27
2018-05-24T08:05:06.692Z,17.67
2018-05-24T08:07:34.789Z,15.37
2018-05-24T08:10:02.354Z,15.83
2018-05-24T08:12:29.925Z,15.40
2018-05-24T08:14:58.511Z,15.60
2018-05-24T08:17:26.070Z,15.17
2018-05-24T08:19:53.627Z,15.63
2018-05-24T08:22:21.292Z,15.03
2018-05-24T08:24:48.844Z,14.87
2018-05-24T08:27:16.404Z,15.40
2018-05-24T08:29:44.032Z,15.20
2018-05-24T08:32:12.357Z,15.10
2018-05-24T08:34:39.909Z,15.23
2018-05-24T08:37:07.780Z,15.20
2018-05-24T08:39:35.338Z,14.17
2018-05-24T08:42:02.897Z,17.15
2018-05-24T08:44:30.491Z,16.27
2018-05-24T08:46:58.045Z,15.23
2018-05-24T08:49:25.632Z,14.27
2018-05-24T08:51:53.280Z,16.15
2018-05-24T08:54:20.844Z,14.53
2018-05-24T08:56:48.410Z,15.65
2018-05-24T08:59:16.845Z,16.60
2018-05-24T09:01:44.402Z,16.60
2018-05-24T09:04:11.965Z,15.83
2018-05-24T09:06:39.572Z,14.33
2018-05-24T09:09:07.139Z,12.13
2018-05-24T09:11:34.692Z,12.37
2018-05-24T09:14:02.305Z,13.05
2018-05-24T09:16:29.860Z,12.23
2018-05-24T09:18:57.412Z,11.90
2018-05-24T09:21:25.031Z,12.37
2018-05-24T09:23:52.590Z,12.70
2018-05-24T09:26:20.145Z,13.82
2018-05-24T09:28:48.611Z,14.35
2018-05-24T09:31:16.199Z,13.87
2018-05-24T09:33:43.723Z,12.10
2018-05-24T09:36:12.284Z,12.77
2018-05-24T09:38:39.748Z,13.30
2018-05-24T09:41:07.313Z,13.20
2018-05-24T09:43:35.372Z,12.80
2018-05-24T09:46:02.932Z,12.53
2018-05-24T09:48:30.487Z,12.50
2018-05-24T09:50:59.301Z,12.53
2018-05-24T09:53:26.864Z,12.57
2018-05-24T09:55:54.421Z,12.90
2018-05-24T09:58:22.021Z,12.47
2018-05-24T10:00:49.580Z,12.27
2018-05-24T10:03:17.135Z,13.68
2018-05-24T10:05:44.737Z,13.57
2018-05-24T10:08:13.065Z,12.53
2018-05-24T10:10:40.675Z,11.53
2018-05-24T10:13:08.223Z,12.83
2018-05-24T10:15:35.779Z,12.23
2018-05-24T10:18:03.369Z,14.20
2018-05-24T10:20:30.981Z,14.00
2018-05-24T10:22:58.535Z,13.90
2018-05-24T10:25:26.090Z,12.93
2018-05-24T10:27:53.685Z,12.20
2018-05-24T10:30:21.239Z,12.30
2018-05-24T10:32:48.797Z,12.23
2018-05-24T10:35:16.458Z,13.77
2018-05-24T10:37:43.971Z,13.07
2018-05-24T10:40:11.538Z,11.80
2018-05-24T10:42:39.182Z,11.37
2018-05-24T10:45:06.785Z,12.27
2018-05-24T10:47:34.315Z,12.00
2018-05-24T10:50:01.966Z,11.07
2018-05-24T10:52:30.293Z,11.77
2018-05-24T10:54:57.850Z,11.67
2018-05-24T10:57:25.693Z,12.10
2018-05-24T10:59:53.264Z,11.60
2018-05-24T11:02:20.822Z,11.77
2018-05-24T11:04:49.355Z,12.20
2018-05-24T11:07:16.950Z,13.40
2018-05-24T11:09:45.288Z,13.07
2018-05-24T11:12:12.989Z,12.10
2018-05-24T11:14:41.311Z,13.18
2018-05-24T11:17:09.159Z,12.27
2018-05-24T11:19:36.732Z,12.33
2018-05-24T11:22:04.295Z,11.53
2018-05-24T11:24:33.415Z,12.43
2018-05-24T11:27:01.015Z,11.70
2018-05-24T11:29:29.343Z,12.33
2018-05-24T11:31:56.960Z,13.47
2018-05-24T11:34:24.863Z,11.93
2018-05-24T11:36:52.424Z,13.57
2018-05-24T11:39:19.977Z,13.00
2018-05-24T11:41:47.586Z,12.70
2018-05-24T11:44:15.147Z,13.03
2018-05-24T11:46:42.859Z,13.15
2018-05-24T11:49:10.798Z,12.23
2018-05-24T11:51:39.132Z,12.17
2018-05-24T11:54:06.699Z,11.27
2018-05-24T11:56:34.670Z,12.13
2018-05-24T11:59:02.265Z,11.27
2018-05-24T12:01:29.775Z,13.10
2018-05-24T12:03:57.380Z,13.93
2018-05-24T12:06:24.938Z,13.07
2018-05-24T12:08:52.533Z,13.17
2018-05-24T12:11:20.107Z,13.57
2018-05-24T12:13:47.658Z,13.27
2018-05-24T12:16:15.212Z,14.03
2018-05-24T12:18:43.579Z,14.50
2018-05-24T12:21:11.260Z,13.97
2018-05-24T12:23:38.776Z,14.83
2018-05-24T12:26:06.391Z,13.67
2018-05-24T12:28:33.944Z,13.60
2018-05-24T12:31:01.502Z,13.87
2018-05-24T12:33:29.143Z,13.33
2018-05-24T12:35:56.699Z,12.93
2018-05-24T12:38:24.264Z,12.93
2018-05-24T12:40:51.878Z,11.80
2018-05-24T12:43:19.442Z,12.10
2018-05-24T12:45:46.997Z,11.50
2018-05-24T12:48:14.651Z,12.67
2018-05-24T12:50:42.256Z,12.60
2018-05-24T12:53:09.926Z,12.10
2018-05-24T12:55:37.418Z,13.00
2018-05-24T12:58:04.979Z,10.47
2018-05-24T13:00:32.536Z,12.10
2018-05-24T13:03:01.417Z,12.07
2018-05-24T13:05:29.743Z,12.83
2018-05-24T13:07:57.329Z,12.10
2018-05-24T13:10:25.898Z,10.93
2018-05-24T13:12:53.457Z,11.30
2018-05-24T13:15:21.016Z,12.53
2018-05-24T13:17:48.615Z,11.60
2018-05-24T13:20:16.170Z,10.50
2018-05-24T13:22:43.724Z,11.53
2018-05-24T13:25:11.368Z,10.53
2018-05-24T13:27:38.928Z,10.13
2018-05-24T13:30:06.493Z,10.53
2018-05-24T13:32:34.092Z,11.63
2018-05-24T13:35:02.424Z,9.67
2018-05-24T13:37:29.982Z,10.07
2018-05-24T13:39:57.589Z,8.97
2018-05-24T13:42:25.144Z,8.60
2018-05-24T13:44:52.702Z,9.17
2018-05-24T13:47:20.297Z,8.10
2018-05-24T13:49:47.851Z,8.97
2018-05-24T13:52:16.174Z,8.17
2018-05-24T13:54:43.827Z,8.00
2018-05-24T13:57:11.376Z,7.83
2018-05-24T13:59:39.032Z,8.67
2018-05-24T14:02:07.648Z,8.97
2018-05-24T14:04:35.201Z,9.57
2018-05-24T14:07:02.774Z,9.73
2018-05-24T14:09:31.348Z,8.57
2018-05-24T14:11:58.904Z,8.63
2018-05-24T14:14:26.457Z,9.23
2018-05-24T14:16:54.086Z,9.60
2018-05-24T14:19:22.404Z,9.40
2018-05-24T14:21:49.949Z,8.70
2018-05-24T14:24:17.541Z,7.47
2018-05-24T14:26:45.088Z,8.70
2018-05-24T14:29:12.645Z,7.90
2018-05-24T14:31:40.732Z,7.90
2018-05-24T14:34:08.280Z,8.30
2018-05-24T14:36:35.918Z,8.60
2018-05-24T14:39:03.452Z,9.30
2018-05-24T14:41:31.003Z,10.63
2018-05-24T14:43:58.572Z,11.40
2018-05-24T14:46:26.593Z,11.73
2018-05-24T14:48:54.153Z,12.10
2018-05-24T14:51:21.717Z,12.48
2018-05-24T14:53:49.346Z,17.25
2018-05-24T14:56:16.898Z,14.70
2018-05-24T14:58:45.213Z,14.53
2018-05-24T15:01:13.825Z,10.30
2018-05-24T15:03:41.374Z,7.40
2018-05-24T15:06:08.917Z,6.90
2018-05-24T15:08:37.225Z,5.83
2018-05-24T15:11:04.775Z,5.80
2018-05-24T15:13:50.458Z,5.40
2018-05-24T15:16:18.016Z,4.97
2018-05-24T15:18:45.569Z,5.10
2018-05-24T15:21:13.606Z,5.63
2018-05-24T15:23:41.926Z,6.10
2018-05-24T15:26:09.490Z,5.40
2018-05-24T15:28:37.072Z,5.23
2018-05-24T15:31:04.617Z,5.27
2018-05-24T15:33:32.170Z,5.10
2018-05-24T15:35:59.777Z,4.83
2018-05-24T15:38:27.327Z,6.53
2018-05-24T15:40:54.872Z,5.20
2018-05-24T15:43:22.464Z,4.77
2018-05-24T15:45:50.014Z,5.60
2018-05-24T15:48:17.568Z,7.23
2018-05-24T15:50:45.222Z,4.63
2018-05-24T15:53:12.769Z,4.43
2018-05-24T15:55:40.317Z,3.80
2018-05-24T15:58:07.911Z,3.80
2018-05-24T16:00:35.466Z,3.90
2018-05-24T16:03:03.052Z,3.60
2018-05-24T16:05:30.617Z,3.47
2018-05-24T16:07:58.171Z,3.97
2018-05-24T16:10:25.723Z,4.22
2018-05-24T16:12:53.336Z,7.10
2018-05-24T16:15:20.885Z,5.10
2018-05-24T16:17:48.433Z,4.40
2018-05-24T16:20:16.799Z,6.87
2018-05-24T16:22:44.355Z,7.67
2018-05-24T16:25:11.903Z,8.50
2018-05-24T16:27:39.507Z,8.20
2018-05-24T16:30:07.823Z,9.00
2018-05-24T16:32:35.381Z,8.80
2018-05-24T16:35:03.007Z,9.37
2018-05-24T16:37:33.777Z,9.27
2018-05-24T16:40:01.335Z,11.73
2018-05-24T16:42:29.831Z,11.93
2018-05-24T16:44:57.384Z,11.03
2018-05-24T16:47:24.943Z,12.20
2018-05-24T16:49:52.547Z,11.57
2018-05-24T16:52:20.101Z,10.90
2018-05-24T16:54:47.656Z,9.60
2018-05-24T16:57:15.809Z,9.80
2018-05-24T16:59:43.388Z,9.80
2018-05-24T17:02:10.936Z,10.43
2018-05-24T17:04:38.787Z,10.97
2018-05-24T17:07:06.345Z,9.97
2018-05-24T17:09:33.899Z,13.03
2018-05-24T17:12:01.789Z,12.63
2018-05-24T17:14:29.336Z,8.40
2018-05-24T17:16:56.900Z,8.23
2018-05-24T17:19:24.505Z,6.77
2018-05-24T17:21:52.059Z,6.70
2018-05-24T17:24:19.614Z,7.07
2018-05-24T17:26:47.246Z,6.67
2018-05-24T17:29:14.794Z,6.23
2018-05-24T17:31:42.341Z,6.17
2018-05-24T17:34:11.766Z,6.63
2018-05-24T17:36:39.320Z,5.87
2018-05-24T17:39:10.191Z,6.00
2018-05-24T17:41:37.796Z,6.00
2018-05-24T17:44:05.375Z,5.57
2018-05-24T17:46:32.933Z,5.13
2018-05-24T17:49:01.064Z,6.07
2018-05-24T17:51:28.658Z,6.30
2018-05-24T17:53:56.184Z,5.83
2018-05-24T17:56:23.794Z,6.07
2018-05-24T17:58:51.350Z,5.50
2018-05-24T18:01:18.925Z,5.93
2018-05-24T18:03:47.010Z,6.30
2018-05-24T18:06:14.584Z,6.57
2018-05-24T18:08:42.149Z,6.03
2018-05-24T18:11:09.868Z,5.97
2018-05-24T18:13:37.413Z,6.80
2018-05-24T18:16:04.967Z,5.43
2018-05-24T18:18:32.641Z,6.67
2018-05-24T18:21:00.982Z,5.40
2018-05-24T18:23:28.531Z,5.07
2018-05-24T18:25:57.126Z,5.50
2018-05-24T18:28:24.677Z,5.70
2018-05-24T18:30:52.272Z,5.37
2018-05-24T18:33:19.830Z,5.20
2018-05-24T18:35:47.421Z,5.60
2018-05-24T18:38:15.758Z,5.17
2018-05-24T18:40:43.367Z,6.30
2018-05-24T18:43:14.449Z,5.93
2018-05-24T18:45:42.016Z,5.70
2018-05-24T18:48:09.578Z,6.40
2018-05-24T18:50:37.293Z,6.53
2018-05-24T18:53:04.809Z,6.13
2018-05-24T18:55:33.363Z,6.57
2018-05-24T18:58:00.942Z,6.10
2018-05-24T19:00:28.529Z,6.20
2018-05-24T19:02:56.121Z,6.40
2018-05-24T19:05:24.476Z,6.30
2018-05-24T19:07:52.026Z,6.03
2018-05-24T19:10:19.771Z,7.17
2018-05-24T19:12:47.305Z,7.27
2018-05-24T19:15:15.021Z,6.90
2018-05-24T19:17:42.640Z,7.73
2018-05-24T19:20:10.247Z,7.50
2018-05-24T19:22:37.864Z,7.17
2018-05-24T19:25:07.005Z,7.95
2018-05-24T19:27:34.558Z,7.13
2018-05-24T19:30:02.169Z,6.63
2018-05-24T19:32:29.764Z,6.10
2018-05-24T19:34:57.374Z,6.60
2018-05-24T19:37:24.963Z,6.57
2018-05-24T19:39:52.735Z,6.80
2018-05-24T19:42:20.321Z,8.13
2018-05-24T19:44:47.885Z,7.00
2018-05-24T19:47:15.567Z,7.10
2018-05-24T19:49:43.135Z,6.43
2018-05-24T19:52:10.649Z,7.03
2018-05-24T19:54:38.245Z,6.73
2018-05-24T19:57:06.138Z,6.87
2018-05-24T19:59:33.640Z,7.30
2018-05-24T20:02:01.271Z,7.67
2018-05-24T20:04:28.817Z,7.10
2018-05-24T20:06:56.367Z,8.10
2018-05-24T20:09:24.819Z,7.50
2018-05-24T20:11:52.379Z,8.20
2018-05-24T20:14:19.932Z,8.47
2018-05-24T20:16:47.540Z,8.50
2018-05-24T20:19:15.090Z,8.90
2018-05-24T20:21:42.657Z,10.48
2018-05-24T20:24:10.316Z,9.53
2018-05-24T20:26:37.867Z,9.43
2018-05-24T20:29:05.419Z,9.00
2018-05-24T20:31:33.060Z,8.30
2018-05-24T20:34:00.614Z,9.30
2018-05-24T20:36:28.168Z,8.30
2018-05-24T20:38:55.819Z,8.60
2018-05-24T20:41:24.133Z,9.17
2018-05-24T20:43:51.696Z,9.43
2018-05-24T20:46:19.308Z,7.83
2018-05-24T20:48:47.657Z,8.87
2018-05-24T20:51:15.232Z,9.20
2018-05-24T20:53:42.867Z,10.23
2018-05-24T20:56:10.431Z,9.53
2018-05-24T20:58:38.010Z,9.17
2018-05-24T21:01:06.065Z,8.50
2018-05-24T21:03:33.633Z,10.85
2018-05-24T21:06:01.190Z,9.40
2018-05-24T21:08:28.862Z,10.30
2018-05-24T21:10:56.413Z,9.20
2018-05-24T21:13:23.969Z,9.17
2018-05-24T21:15:52.142Z,10.33
2018-05-24T21:18:19.700Z,10.00
2018-05-24T21:20:47.256Z,10.70
2018-05-24T21:23:14.856Z,10.03
2018-05-24T21:25:42.425Z,10.30
2018-05-24T21:28:09.979Z,15.70
2018-05-24T21:30:38.434Z,13.40
2018-05-24T21:33:05.987Z,10.40
2018-05-24T21:35:33.543Z,11.27
2018-05-24T21:38:01.210Z,10.33
2018-05-24T21:40:28.707Z,10.27
2018-05-24T21:42:56.260Z,9.73
2018-05-24T21:45:24.841Z,10.83
2018-05-24T21:47:52.368Z,10.17
2018-05-24T21:50:19.932Z,10.93
2018-05-24T21:52:47.538Z,11.77
2018-05-24T21:55:15.094Z,10.63
2018-05-24T21:57:42.653Z,10.93
2018-05-24T22:00:10.261Z,12.77
2018-05-24T22:02:37.827Z,13.48
2018-05-24T22:05:05.380Z,13.07
2018-05-24T22:07:33.497Z,11.43
2018-05-24T22:10:01.033Z,9.27
2018-05-24T22:12:28.582Z,10.10
2018-05-24T22:14:56.229Z,8.40
2018-05-24T22:17:24.556Z,7.87
2018-05-24T22:19:52.113Z,8.13
2018-05-24T22:22:19.718Z,8.40
2018-05-24T22:24:47.276Z,7.83
2018-05-24T22:27:15.593Z,7.83
2018-05-24T22:29:43.185Z,10.57
2018-05-24T22:32:10.736Z,8.57
2018-05-24T22:34:38.298Z,10.55
2018-05-24T22:37:05.894Z,8.60
2018-05-24T22:39:33.830Z,8.10
2018-05-24T22:42:01.381Z,8.40
2018-05-24T22:44:28.968Z,9.20
2018-05-24T22:46:56.540Z,8.50
2018-05-24T22:49:24.097Z,7.23
2018-05-24T22:51:51.683Z,10.35
2018-05-24T22:54:20.002Z,9.43
2018-05-24T22:56:47.579Z,8.13
2018-05-24T22:59:15.159Z,8.30
2018-05-24T23:01:42.703Z,7.73
2018-05-24T23:04:10.249Z,9.80
2018-05-24T23:06:37.837Z,8.37
2018-05-24T23:09:08.150Z,7.73
2018-05-24T23:11:35.705Z,10.48
2018-05-24T23:14:03.293Z,8.97
2018-05-24T23:16:30.843Z,8.17
2018-05-24T23:18:58.389Z,7.53
2018-05-24T23:21:26.007Z,9.27
2018-05-24T23:23:54.324Z,9.17
2018-05-24T23:26:21.880Z,8.27
2018-05-24T23:28:49.458Z,8.40
2018-05-24T23:31:17.013Z,7.90
2018-05-24T23:33:44.564Z,7.87
2018-05-24T23:36:12.144Z,8.03
2018-05-24T23:38:39.735Z,7.80
2018-05-24T23:41:07.255Z,7.53
2018-05-24T23:43:34.837Z,8.20
2018-05-24T23:46:02.401Z,9.13
2018-05-24T23:48:29.945Z,10.30
2018-05-24T23:50:57.529Z,12.20
2018-05-24T23:53:26.350Z,11.33
2018-05-24T23:55:53.904Z,13.80
2018-05-24T23:58:22.258Z,14.40
